createdAt,value
2019-02-05T00:00:58.032Z,25.30
2019-02-05T00:01:58.015Z,25.90
2019-02-05T00:02:57.998Z,26.50
2019-02-05T00:03:57.979Z,27.10
2019-02-05T00:04:57.963Z,28.10
2019-02-05T00:05:57.944Z,26.10
2019-02-05T00:06:57.927Z,26.20
2019-02-05T00:07:57.911Z,28.60
2019-02-05T00:08:57.893Z,28.60
2019-02-05T00:09:57.877Z,27.30
2019-02-05T00:10:57.859Z,27.80
2019-02-05T00:11:57.840Z,26.50
2019-02-05T00:12:57.822Z,27.00
2019-02-05T00:13:57.806Z,27.50
2019-02-05T00:14:57.787Z,28.70
2019-02-05T00:15:57.771Z,27.20
2019-02-05T00:16:57.753Z,27.70
2019-02-05T00:17:57.736Z,29.70
2019-02-05T00:18:57.716Z,28.10
2019-02-05T00:19:57.700Z,27.70
2019-02-05T00:20:57.683Z,28.20
2019-02-05T00:21:57.665Z,29.60
2019-02-05T00:22:57.645Z,26.60
2019-02-05T00:23:57.628Z,26.70
2019-02-05T00:24:57.611Z,26.40
2019-02-05T00:26:05.846Z,28.30
2019-02-05T00:26:57.578Z,26.50
2019-02-05T00:27:57.570Z,28.80
2019-02-05T00:28:57.542Z,26.20
2019-02-05T00:29:57.524Z,26.30
2019-02-05T00:30:57.507Z,26.10
2019-02-05T00:31:57.488Z,26.60
2019-02-05T00:32:57.472Z,27.20
2019-02-05T00:33:57.454Z,27.50
2019-02-05T00:34:57.437Z,27.40
2019-02-05T00:35:57.420Z,29.70
2019-02-05T00:36:57.401Z,28.50
2019-02-05T00:37:57.387Z,28.90
2019-02-05T00:38:57.367Z,28.50
2019-02-05T00:39:57.348Z,29.30
2019-02-05T00:40:57.331Z,31.60
2019-02-05T00:41:57.313Z,28.30
2019-02-05T00:42:57.301Z,27.60
2019-02-05T00:43:57.280Z,25.40
2019-02-05T00:44:57.262Z,28.10
2019-02-05T00:45:57.244Z,30.90
2019-02-05T00:46:57.226Z,29.30
2019-02-05T00:47:57.313Z,28.10
2019-02-05T00:48:57.192Z,27.70
2019-02-05T00:49:57.172Z,28.80
2019-02-05T00:50:57.159Z,29.10
2019-02-05T00:51:57.138Z,28.60
2019-02-05T00:52:57.120Z,28.20
2019-02-05T00:53:57.107Z,30.90
2019-02-05T00:54:57.084Z,29.80
2019-02-05T00:55:57.071Z,28.60
2019-02-05T00:56:57.051Z,28.20
2019-02-05T00:57:57.033Z,27.30
2019-02-05T00:58:57.015Z,28.10
2019-02-05T00:59:57.044Z,26.90
2019-02-05T01:00:56.978Z,26.10
2019-02-05T01:01:56.963Z,26.10
2019-02-05T01:02:56.946Z,27.80
2019-02-05T01:03:56.927Z,26.70
2019-02-05T01:04:56.908Z,28.60
2019-02-05T01:05:56.889Z,27.10
2019-02-05T01:06:56.873Z,27.50
2019-02-05T01:07:56.855Z,28.10
2019-02-05T01:08:56.839Z,30.90
2019-02-05T01:09:56.824Z,28.10
2019-02-05T01:10:56.801Z,28.60
2019-02-05T01:11:56.786Z,31.90
2019-02-05T01:12:56.769Z,29.80
2019-02-05T01:13:56.753Z,32.40
2019-02-05T01:14:56.730Z,29.70
2019-02-05T01:15:56.716Z,30.60
2019-02-05T01:16:56.696Z,30.70
2019-02-05T01:17:56.678Z,30.00
2019-02-05T01:18:56.663Z,28.60
2019-02-05T01:19:56.645Z,27.90
2019-02-05T01:20:56.627Z,26.20
2019-02-05T01:21:56.608Z,27.10
2019-02-05T01:22:56.588Z,29.00
2019-02-05T01:23:56.574Z,30.40
2019-02-05T01:24:56.555Z,28.60
2019-02-05T01:25:56.539Z,28.80
2019-02-05T01:26:56.521Z,29.90
2019-02-05T01:27:56.623Z,28.70
2019-02-05T01:28:56.485Z,29.80
2019-02-05T01:29:56.468Z,28.70
2019-02-05T01:30:56.447Z,27.90
2019-02-05T01:31:56.432Z,27.50
2019-02-05T01:32:56.413Z,26.10
2019-02-05T01:33:56.396Z,27.50
2019-02-05T01:34:56.377Z,26.70
2019-02-05T01:35:56.361Z,27.50
2019-02-05T01:36:56.363Z,25.40
2019-02-05T01:37:56.326Z,26.30
2019-02-05T01:38:56.305Z,26.20
2019-02-05T01:39:56.290Z,29.10
2019-02-05T01:40:56.406Z,27.70
2019-02-05T01:41:56.254Z,26.10
2019-02-05T01:42:56.237Z,26.20
2019-02-05T01:43:56.217Z,25.60
2019-02-05T01:44:56.200Z,25.60
2019-02-05T01:45:56.182Z,27.10
2019-02-05T01:46:56.164Z,29.30
2019-02-05T01:47:56.146Z,28.20
2019-02-05T01:48:56.130Z,25.80
2019-02-05T01:49:56.113Z,27.20
2019-02-05T01:50:56.093Z,27.00
2019-02-05T01:51:56.104Z,26.40
2019-02-05T01:52:56.057Z,27.10
2019-02-05T01:53:56.040Z,27.00
2019-02-05T01:54:56.020Z,30.10
2019-02-05T01:55:56.003Z,28.80
2019-02-05T01:56:55.986Z,27.60
2019-02-05T01:57:55.969Z,26.70
2019-02-05T01:58:55.947Z,25.20
2019-02-05T01:59:55.931Z,28.70
2019-02-05T02:00:55.915Z,27.90
2019-02-05T02:01:55.895Z,28.80
2019-02-05T02:02:55.879Z,27.00
2019-02-05T02:03:55.862Z,26.30
2019-02-05T02:04:55.843Z,28.90
2019-02-05T02:05:55.825Z,28.60
2019-02-05T02:06:55.805Z,27.50
2019-02-05T02:07:55.789Z,29.90
2019-02-05T02:08:55.772Z,27.40
2019-02-05T02:09:55.754Z,27.70
2019-02-05T02:10:55.735Z,28.90
2019-02-05T02:11:55.719Z,28.10
2019-02-05T02:12:55.699Z,27.10
2019-02-05T02:13:55.683Z,30.80
2019-02-05T02:14:55.668Z,31.40
2019-02-05T02:15:55.644Z,28.20
2019-02-05T02:16:55.629Z,28.70
2019-02-05T02:17:55.610Z,27.90
2019-02-05T02:18:55.593Z,27.80
2019-02-05T02:19:55.574Z,29.90
2019-02-05T02:20:55.566Z,26.90
2019-02-05T02:21:55.539Z,29.90
2019-02-05T02:22:55.518Z,29.00
2019-02-05T02:23:55.500Z,29.20
2019-02-05T02:24:55.484Z,30.00
2019-02-05T02:25:55.467Z,29.70
2019-02-05T02:26:55.449Z,32.20
2019-02-05T02:27:55.429Z,27.80
2019-02-05T02:28:55.413Z,29.80
2019-02-05T02:29:55.393Z,30.00
2019-02-05T02:30:55.376Z,27.90
2019-02-05T02:31:55.359Z,28.90
2019-02-05T02:32:55.348Z,30.40
2019-02-05T02:33:55.328Z,29.90
2019-02-05T02:34:55.304Z,27.00
2019-02-05T02:35:55.284Z,26.30
2019-02-05T02:36:55.268Z,26.50
2019-02-05T02:37:55.249Z,28.00
2019-02-05T02:38:55.231Z,27.60
2019-02-05T02:39:55.211Z,27.80
2019-02-05T02:40:55.193Z,28.40
2019-02-05T02:41:55.178Z,26.70
2019-02-05T02:42:55.159Z,27.60
2019-02-05T02:43:55.145Z,29.40
2019-02-05T02:44:55.122Z,29.00
2019-02-05T02:45:55.106Z,28.50
2019-02-05T02:46:55.084Z,27.90
2019-02-05T02:47:55.067Z,27.10
2019-02-05T02:48:55.051Z,27.40
2019-02-05T02:49:55.033Z,29.70
2019-02-05T02:50:55.019Z,29.50
2019-02-05T02:51:54.994Z,28.20
2019-02-05T02:52:54.974Z,28.40
2019-02-05T02:53:54.958Z,29.10
2019-02-05T02:54:54.964Z,29.90
2019-02-05T02:55:54.921Z,28.80
2019-02-05T02:57:04.648Z,29.60
2019-02-05T02:57:54.885Z,28.50
2019-02-05T02:58:54.926Z,29.80
2019-02-05T02:59:54.849Z,28.40
2019-02-05T03:00:54.843Z,29.70
2019-02-05T03:01:54.813Z,25.60
2019-02-05T03:02:54.792Z,28.10
2019-02-05T03:03:54.775Z,28.10
2019-02-05T03:04:54.756Z,27.20
2019-02-05T03:05:54.739Z,29.40
2019-02-05T03:06:54.719Z,29.40
2019-02-05T03:07:54.700Z,29.70
2019-02-05T03:08:54.681Z,30.40
2019-02-05T03:09:54.664Z,29.40
2019-02-05T03:10:54.648Z,27.90
2019-02-05T03:11:54.627Z,30.20
2019-02-05T03:12:54.798Z,30.90
2019-02-05T03:13:54.590Z,32.00
2019-02-05T03:14:54.573Z,31.80
2019-02-05T03:15:54.553Z,30.30
2019-02-05T03:16:54.534Z,30.80
2019-02-05T03:17:54.519Z,29.80
2019-02-05T03:18:54.500Z,28.50
2019-02-05T03:19:54.479Z,30.00
2019-02-05T03:20:54.461Z,30.40
2019-02-05T03:21:54.444Z,28.50
2019-02-05T03:22:54.423Z,29.30
2019-02-05T03:23:54.405Z,30.20
2019-02-05T03:24:54.407Z,28.70
2019-02-05T03:25:54.369Z,31.50
2019-02-05T03:26:54.350Z,31.10
2019-02-05T03:27:54.487Z,31.50
2019-02-05T03:28:54.313Z,30.30
2019-02-05T03:29:54.296Z,30.10
2019-02-05T03:30:54.322Z,31.70
2019-02-05T03:31:54.265Z,34.20
2019-02-05T03:32:54.239Z,32.40
2019-02-05T03:33:54.218Z,31.30
2019-02-05T03:34:54.199Z,30.20
2019-02-05T03:35:54.186Z,30.60
2019-02-05T03:36:54.164Z,29.40
2019-02-05T03:37:54.147Z,28.30
2019-02-05T03:38:54.125Z,29.90
2019-02-05T03:39:54.108Z,29.10
2019-02-05T03:40:54.094Z,29.90
2019-02-05T03:41:54.073Z,30.40
2019-02-05T03:42:54.052Z,29.70
2019-02-05T03:43:54.032Z,29.10
2019-02-05T03:44:54.015Z,29.40
2019-02-05T03:45:53.998Z,30.80
2019-02-05T03:46:53.980Z,30.00
2019-02-05T03:47:53.965Z,28.90
2019-02-05T03:48:53.941Z,32.00
2019-02-05T03:49:53.924Z,30.90
2019-02-05T03:50:53.904Z,29.40
2019-02-05T03:51:53.882Z,30.00
2019-02-05T03:52:53.867Z,29.60
2019-02-05T03:53:53.848Z,31.60
2019-02-05T03:54:53.828Z,30.60
2019-02-05T03:55:53.808Z,31.20
2019-02-05T03:56:53.793Z,29.70
2019-02-05T03:57:53.774Z,31.50
2019-02-05T03:58:53.754Z,29.70
2019-02-05T03:59:53.734Z,30.70
2019-02-05T04:00:53.717Z,30.70
2019-02-05T04:01:53.699Z,30.60
2019-02-05T04:02:53.679Z,29.60
2019-02-05T04:03:53.664Z,37.00
2019-02-05T04:04:53.639Z,83.90
2019-02-05T04:05:53.626Z,30.40
2019-02-05T04:06:53.603Z,28.80
2019-02-05T04:08:53.571Z,32.00
2019-02-05T04:09:53.546Z,30.60
2019-02-05T04:10:53.529Z,31.10
2019-02-05T04:11:53.512Z,29.40
2019-02-05T04:12:53.490Z,32.20
2019-02-05T04:13:53.473Z,30.30
2019-02-05T04:14:53.455Z,29.80
2019-02-05T04:15:53.433Z,29.90
2019-02-05T04:16:53.416Z,28.40
2019-02-05T04:17:53.397Z,28.60
2019-02-05T04:18:53.379Z,30.80
2019-02-05T04:19:53.358Z,28.50
2019-02-05T04:20:53.341Z,28.90
2019-02-05T04:21:53.321Z,30.90
2019-02-05T04:22:53.303Z,29.30
2019-02-05T04:23:53.284Z,31.70
2019-02-05T04:24:53.265Z,29.60
2019-02-05T04:25:53.255Z,29.20
2019-02-05T04:26:53.227Z,30.60
2019-02-05T04:27:53.210Z,31.00
2019-02-05T04:28:53.192Z,29.50
2019-02-05T04:29:53.185Z,30.20
2019-02-05T04:30:53.153Z,31.50
2019-02-05T04:31:53.137Z,32.80
2019-02-05T04:32:53.115Z,33.70
2019-02-05T04:33:53.099Z,32.50
2019-02-05T04:34:53.076Z,33.40
2019-02-05T04:35:53.056Z,34.30
2019-02-05T04:36:53.040Z,32.40
2019-02-05T04:37:53.034Z,30.40
2019-02-05T04:38:53.011Z,33.10
2019-02-05T04:39:52.982Z,35.10
2019-02-05T04:40:52.965Z,35.00
2019-02-05T04:41:52.945Z,32.90
2019-02-05T04:42:52.928Z,32.10
2019-02-05T04:43:52.912Z,32.20
2019-02-05T04:44:52.887Z,32.90
2019-02-05T04:45:52.869Z,32.30
2019-02-05T04:46:52.848Z,29.60
2019-02-05T04:47:52.839Z,31.40
2019-02-05T04:48:52.810Z,30.80
2019-02-05T04:49:52.793Z,30.00
2019-02-05T04:50:52.775Z,31.00
2019-02-05T04:51:52.757Z,29.10
2019-02-05T04:52:52.742Z,30.80
2019-02-05T04:53:52.720Z,30.30
2019-02-05T04:54:52.705Z,33.80
2019-02-05T04:55:52.678Z,31.00
2019-02-05T04:56:52.659Z,31.20
2019-02-05T04:57:58.123Z,31.00
2019-02-05T04:58:52.621Z,34.20
2019-02-05T04:59:52.604Z,31.60
2019-02-05T05:00:52.604Z,32.50
2019-02-05T05:01:52.567Z,31.10
2019-02-05T05:02:52.547Z,33.30
2019-02-05T05:03:52.528Z,36.90
2019-02-05T05:04:52.509Z,33.10
2019-02-05T05:05:52.497Z,35.60
2019-02-05T05:06:52.470Z,33.60
2019-02-05T05:07:52.466Z,33.50
2019-02-05T05:08:52.433Z,32.70
2019-02-05T05:09:52.415Z,36.50
2019-02-05T05:10:52.396Z,31.90
2019-02-05T05:11:52.378Z,35.20
2019-02-05T05:12:52.356Z,33.20
2019-02-05T05:13:52.340Z,32.70
2019-02-05T05:14:52.319Z,31.60
2019-02-05T05:15:52.302Z,35.00
2019-02-05T05:16:52.282Z,34.00
2019-02-05T05:17:52.262Z,32.80
2019-02-05T05:18:52.245Z,33.10
2019-02-05T05:19:52.231Z,32.80
2019-02-05T05:20:52.304Z,33.80
2019-02-05T05:21:52.196Z,33.70
2019-02-05T05:22:52.170Z,33.20
2019-02-05T05:23:52.149Z,32.60
2019-02-05T05:24:52.132Z,31.50
2019-02-05T05:25:52.116Z,30.60
2019-02-05T05:26:52.093Z,31.50
2019-02-05T05:27:52.074Z,35.40
2019-02-05T05:28:52.057Z,33.10
2019-02-05T05:29:52.039Z,35.80
2019-02-05T05:30:52.018Z,32.70
2019-02-05T05:31:52.000Z,35.80
2019-02-05T05:32:51.980Z,33.00
2019-02-05T05:33:51.963Z,35.90
2019-02-05T05:34:51.942Z,36.00
2019-02-05T05:35:51.927Z,33.10
2019-02-05T05:36:51.904Z,34.40
2019-02-05T05:37:51.887Z,34.60
2019-02-05T05:38:51.867Z,34.60
2019-02-05T05:39:51.849Z,36.00
2019-02-05T05:40:51.829Z,33.60
2019-02-05T05:41:51.809Z,34.50
2019-02-05T05:42:51.788Z,36.20
2019-02-05T05:43:51.770Z,37.70
2019-02-05T05:44:51.752Z,35.20
2019-02-05T05:45:51.736Z,35.10
2019-02-05T05:46:51.716Z,42.30
2019-02-05T05:47:51.698Z,39.90
2019-02-05T05:48:51.678Z,38.60
2019-02-05T05:49:51.660Z,39.00
2019-02-05T05:50:51.639Z,38.70
2019-02-05T05:51:51.621Z,39.20
2019-02-05T05:52:51.605Z,39.80
2019-02-05T05:53:51.583Z,40.90
2019-02-05T05:54:51.566Z,42.80
2019-02-05T05:55:51.545Z,42.70
2019-02-05T05:56:51.530Z,42.40
2019-02-05T05:57:51.511Z,41.70
2019-02-05T05:58:51.491Z,43.60
2019-02-05T05:59:51.469Z,45.10
2019-02-05T06:00:51.454Z,46.20
2019-02-05T06:01:51.434Z,48.30
2019-02-05T06:02:51.419Z,45.50
2019-02-05T06:03:51.402Z,46.30
2019-02-05T06:04:51.379Z,44.10
2019-02-05T06:05:51.358Z,45.90
2019-02-05T06:06:51.340Z,44.20
2019-02-05T06:07:51.322Z,49.20
2019-02-05T06:08:51.306Z,48.20
2019-02-05T06:09:51.285Z,47.50
2019-02-05T06:10:51.265Z,43.40
2019-02-05T06:11:51.329Z,42.60
2019-02-05T06:12:51.233Z,44.40
2019-02-05T06:13:51.212Z,46.20
2019-02-05T06:14:51.194Z,43.20
2019-02-05T06:15:51.175Z,48.00
2019-02-05T06:16:51.155Z,43.40
2019-02-05T06:17:51.141Z,47.20
2019-02-05T06:18:51.117Z,44.80
2019-02-05T06:19:51.097Z,45.50
2019-02-05T06:20:51.080Z,45.20
2019-02-05T06:21:51.063Z,46.90
2019-02-05T06:22:51.044Z,49.00
2019-02-05T06:23:51.025Z,44.60
2019-02-05T06:24:51.006Z,46.20
2019-02-05T06:25:50.993Z,46.50
2019-02-05T06:26:50.970Z,47.70
2019-02-05T06:27:50.950Z,45.70
2019-02-05T06:28:50.936Z,45.30
2019-02-05T06:29:50.915Z,44.30
2019-02-05T06:30:50.894Z,44.90
2019-02-05T06:31:50.876Z,46.80
2019-02-05T06:32:50.862Z,44.80
2019-02-05T06:33:50.857Z,42.70
2019-02-05T06:34:50.820Z,44.50
2019-02-05T06:35:50.804Z,43.70
2019-02-05T06:36:50.787Z,42.60
2019-02-05T06:37:50.767Z,43.30
2019-02-05T06:38:50.747Z,41.70
2019-02-05T06:39:50.731Z,42.20
2019-02-05T06:40:50.710Z,42.20
2019-02-05T06:41:50.694Z,44.00
2019-02-05T06:42:50.676Z,44.80
2019-02-05T06:43:50.656Z,41.10
2019-02-05T06:44:50.638Z,44.90
2019-02-05T06:45:50.617Z,44.10
2019-02-05T06:46:50.599Z,44.70
2019-02-05T06:47:50.580Z,46.10
2019-02-05T06:48:50.562Z,44.40
2019-02-05T06:49:50.546Z,41.50
2019-02-05T06:50:50.525Z,41.20
2019-02-05T06:51:50.506Z,41.10
2019-02-05T06:52:50.491Z,42.30
2019-02-05T06:53:50.471Z,43.60
2019-02-05T06:54:50.453Z,45.30
2019-02-05T06:55:50.434Z,43.60
2019-02-05T06:56:50.416Z,42.90
2019-02-05T06:57:50.400Z,42.50
2019-02-05T06:58:50.377Z,41.90
2019-02-05T06:59:50.402Z,43.10
2019-02-05T07:00:50.339Z,45.10
2019-02-05T07:01:50.324Z,46.00
2019-02-05T07:02:52.872Z,47.80
2019-02-05T07:03:50.289Z,43.10
2019-02-05T07:04:50.267Z,45.80
2019-02-05T07:05:50.249Z,47.10
2019-02-05T07:06:50.229Z,48.40
2019-02-05T07:07:50.213Z,47.40
2019-02-05T07:08:50.194Z,48.30
2019-02-05T07:09:50.174Z,46.20
2019-02-05T07:10:50.157Z,48.10
2019-02-05T07:11:50.140Z,48.30
2019-02-05T07:12:50.120Z,51.20
2019-02-05T07:13:50.103Z,49.10
2019-02-05T07:14:50.085Z,49.50
2019-02-05T07:15:50.065Z,49.20
2019-02-05T07:16:50.048Z,50.90
2019-02-05T07:17:50.459Z,46.60
2019-02-05T07:18:50.008Z,46.60
2019-02-05T07:19:49.993Z,49.20
2019-02-05T07:20:49.973Z,51.60
2019-02-05T07:21:49.957Z,55.30
2019-02-05T07:22:49.940Z,56.50
2019-02-05T07:23:49.918Z,55.80
2019-02-05T07:24:49.902Z,55.30
2019-02-05T07:25:49.883Z,51.00
2019-02-05T07:26:49.863Z,37.60
2019-02-05T07:27:49.844Z,41.50
2019-02-05T07:28:57.962Z,38.90
2019-02-05T07:29:49.810Z,41.20
2019-02-05T07:30:49.790Z,40.80
2019-02-05T07:31:49.770Z,37.00
2019-02-05T07:32:49.758Z,38.10
2019-02-05T07:33:49.736Z,40.20
2019-02-05T07:34:49.716Z,37.70
2019-02-05T07:35:49.700Z,38.10
2019-02-05T07:36:49.681Z,37.40
2019-02-05T07:37:49.663Z,40.80
2019-02-05T07:38:49.642Z,47.30
2019-02-05T07:39:49.628Z,52.70
2019-02-05T07:40:49.606Z,52.30
2019-02-05T07:41:49.589Z,52.00
2019-02-05T07:42:49.572Z,51.80
2019-02-05T07:43:49.553Z,49.80
2019-02-05T07:44:49.534Z,46.60
2019-02-05T07:45:49.514Z,48.30
2019-02-05T07:46:49.498Z,50.00
2019-02-05T07:47:49.482Z,44.00
2019-02-05T07:48:49.460Z,43.40
2019-02-05T07:49:49.444Z,45.50
2019-02-05T07:50:49.423Z,39.90
2019-02-05T07:51:49.403Z,42.20
2019-02-05T07:52:49.385Z,39.90
2019-02-05T07:53:49.368Z,42.20
2019-02-05T07:54:49.346Z,42.00
2019-02-05T07:55:49.330Z,38.30
2019-02-05T07:56:49.312Z,38.50
2019-02-05T07:57:49.291Z,42.30
2019-02-05T07:58:49.276Z,41.10
2019-02-05T07:59:49.255Z,40.20
2019-02-05T08:00:49.234Z,43.20
2019-02-05T08:01:49.219Z,40.90
2019-02-05T08:02:49.200Z,40.60
2019-02-05T08:03:49.178Z,43.90
2019-02-05T08:04:49.161Z,42.00
2019-02-05T08:05:49.143Z,41.00
2019-02-05T08:06:49.123Z,42.50
2019-02-05T08:07:49.106Z,43.40
2019-02-05T08:08:49.088Z,42.60
2019-02-05T08:09:49.070Z,43.50
2019-02-05T08:10:49.048Z,44.00
2019-02-05T08:11:49.029Z,43.00
2019-02-05T08:12:49.013Z,40.60
2019-02-05T08:13:48.999Z,41.40
2019-02-05T08:14:48.973Z,37.50
2019-02-05T08:15:48.955Z,36.50
2019-02-05T08:16:49.064Z,40.10
2019-02-05T08:17:48.921Z,43.60
2019-02-05T08:18:48.900Z,40.50
2019-02-05T08:19:48.883Z,42.40
2019-02-05T08:20:48.864Z,42.40
2019-02-05T08:21:48.845Z,42.90
2019-02-05T08:22:48.825Z,41.10
2019-02-05T08:23:48.811Z,42.30
2019-02-05T08:24:48.789Z,43.00
2019-02-05T08:25:48.772Z,40.10
2019-02-05T08:26:48.752Z,37.50
2019-02-05T08:27:48.734Z,40.00
2019-02-05T08:28:48.717Z,41.30
2019-02-05T08:29:48.697Z,37.20
2019-02-05T08:30:48.680Z,35.20
2019-02-05T08:31:48.663Z,37.40
2019-02-05T08:32:48.643Z,32.00
2019-02-05T08:33:48.626Z,32.30
2019-02-05T08:34:48.606Z,33.00
2019-02-05T08:35:48.588Z,35.10
2019-02-05T08:36:48.571Z,33.60
2019-02-05T08:37:48.554Z,30.80
2019-02-05T08:38:48.535Z,34.40
2019-02-05T08:39:48.514Z,31.80
2019-02-05T08:40:48.497Z,33.90
2019-02-05T08:41:48.479Z,31.50
2019-02-05T08:42:48.460Z,31.40
2019-02-05T08:43:48.443Z,31.60
2019-02-05T08:44:48.426Z,33.30
2019-02-05T08:45:56.359Z,29.40
2019-02-05T08:46:48.389Z,31.90
2019-02-05T08:47:48.371Z,31.40
2019-02-05T08:48:48.354Z,35.10
2019-02-05T08:49:48.333Z,36.70
2019-02-05T08:50:48.314Z,36.10
2019-02-05T08:51:48.296Z,36.10
2019-02-05T08:52:48.278Z,36.70
2019-02-05T08:53:48.261Z,36.40
2019-02-05T08:54:48.243Z,33.80
2019-02-05T08:55:48.225Z,36.40
2019-02-05T08:56:48.208Z,35.00
2019-02-05T08:57:48.190Z,32.80
2019-02-05T08:58:48.170Z,32.10
2019-02-05T08:59:48.152Z,33.50
2019-02-05T09:00:48.134Z,32.80
2019-02-05T09:01:48.116Z,33.00
2019-02-05T09:02:48.097Z,33.90
2019-02-05T09:03:48.079Z,35.00
2019-02-05T09:04:48.062Z,33.10
2019-02-05T09:05:48.046Z,33.40
2019-02-05T09:06:48.025Z,34.50
2019-02-05T09:07:48.008Z,31.40
2019-02-05T09:08:47.989Z,35.00
2019-02-05T09:09:47.972Z,38.30
2019-02-05T09:10:47.954Z,38.20
2019-02-05T09:11:47.937Z,37.60
2019-02-05T09:12:47.922Z,35.50
2019-02-05T09:13:47.900Z,37.80
2019-02-05T09:14:47.881Z,36.20
2019-02-05T09:15:47.866Z,38.60
2019-02-05T09:16:47.845Z,38.40
2019-02-05T09:17:47.832Z,39.50
2019-02-05T09:18:47.810Z,38.80
2019-02-05T09:19:47.792Z,34.70
2019-02-05T09:20:47.774Z,38.00
2019-02-05T09:21:47.759Z,35.40
2019-02-05T09:22:47.741Z,37.00
2019-02-05T09:23:47.719Z,38.70
2019-02-05T09:24:47.703Z,36.90
2019-02-05T09:25:47.686Z,37.60
2019-02-05T09:26:47.667Z,34.10
2019-02-05T09:27:47.652Z,35.20
2019-02-05T09:28:47.632Z,37.00
2019-02-05T09:29:47.615Z,38.70
2019-02-05T09:30:47.594Z,39.30
2019-02-05T09:31:47.581Z,41.20
2019-02-05T09:32:47.559Z,42.80
2019-02-05T09:33:47.545Z,42.00
2019-02-05T09:34:47.526Z,41.70
2019-02-05T09:35:47.508Z,40.60
2019-02-05T09:36:47.491Z,41.00
2019-02-05T09:37:47.474Z,41.30
2019-02-05T09:38:47.454Z,41.60
2019-02-05T09:39:47.437Z,40.50
2019-02-05T09:40:47.420Z,42.40
2019-02-05T09:41:47.401Z,41.80
2019-02-05T09:42:47.386Z,41.40
2019-02-05T09:43:47.366Z,40.80
2019-02-05T09:44:47.353Z,40.90
2019-02-05T09:45:47.333Z,41.80
2019-02-05T09:46:47.314Z,40.00
2019-02-05T09:47:47.294Z,39.20
2019-02-05T09:48:47.279Z,39.70
2019-02-05T09:49:47.261Z,41.00
2019-02-05T09:50:47.241Z,41.90
2019-02-05T09:51:47.335Z,42.50
2019-02-05T09:52:47.208Z,38.80
2019-02-05T09:53:47.190Z,41.70
2019-02-05T09:54:47.171Z,45.30
2019-02-05T09:55:47.154Z,47.00
2019-02-05T09:56:47.138Z,44.00
2019-02-05T09:57:47.118Z,42.10
2019-02-05T09:58:47.102Z,40.50
2019-02-05T09:59:47.083Z,40.20
2019-02-05T10:00:47.065Z,41.50
2019-02-05T10:01:47.050Z,42.00
2019-02-05T10:02:47.032Z,44.30
2019-02-05T10:03:47.015Z,40.00
2019-02-05T10:04:46.996Z,40.80
2019-02-05T10:05:46.978Z,37.80
2019-02-05T10:06:49.917Z,38.80
2019-02-05T10:07:46.945Z,37.00
2019-02-05T10:08:46.926Z,39.70
2019-02-05T10:09:46.910Z,38.40
2019-02-05T10:10:46.891Z,40.60
2019-02-05T10:11:46.873Z,40.60
2019-02-05T10:12:47.188Z,39.60
2019-02-05T10:13:46.838Z,40.70
2019-02-05T10:14:46.821Z,40.20
2019-02-05T10:15:46.804Z,37.90
2019-02-05T10:16:46.784Z,39.10
2019-02-05T10:17:46.767Z,37.80
2019-02-05T10:18:46.877Z,39.80
2019-02-05T10:19:46.732Z,39.00
2019-02-05T10:20:46.716Z,40.80
2019-02-05T10:21:46.698Z,39.80
2019-02-05T10:22:46.681Z,39.50
2019-02-05T10:23:46.664Z,39.70
2019-02-05T10:24:49.767Z,39.00
2019-02-05T10:25:46.629Z,39.10
2019-02-05T10:26:46.609Z,38.90
2019-02-05T10:27:46.597Z,38.50
2019-02-05T10:28:46.578Z,40.40
2019-02-05T10:29:57.743Z,37.80
2019-02-05T10:30:46.542Z,38.50
2019-02-05T10:31:46.524Z,39.80
2019-02-05T10:32:46.506Z,40.30
2019-02-05T10:33:54.860Z,35.90
2019-02-05T10:34:46.472Z,35.80
2019-02-05T10:35:46.457Z,38.70
2019-02-05T10:36:46.436Z,38.20
2019-02-05T10:37:46.419Z,42.80
2019-02-05T10:38:46.406Z,37.30
2019-02-05T10:39:46.389Z,39.90
2019-02-05T10:40:46.369Z,39.90
2019-02-05T10:41:46.352Z,38.00
2019-02-05T10:42:46.336Z,38.60
2019-02-05T10:43:46.319Z,39.70
2019-02-05T10:44:46.301Z,42.10
2019-02-05T10:45:46.283Z,37.90
2019-02-05T10:46:46.263Z,38.00
2019-02-05T10:47:46.246Z,38.20
2019-02-05T10:48:46.233Z,41.30
2019-02-05T10:49:46.213Z,35.50
2019-02-05T10:50:46.196Z,38.80
2019-02-05T10:51:46.178Z,39.10
2019-02-05T10:52:46.163Z,40.70
2019-02-05T10:53:46.146Z,38.20
2019-02-05T10:54:46.126Z,37.70
2019-02-05T10:55:46.109Z,39.90
2019-02-05T10:56:46.092Z,37.80
2019-02-05T10:57:46.078Z,40.10
2019-02-05T10:58:46.059Z,36.90
2019-02-05T10:59:46.044Z,41.40
2019-02-05T11:00:46.029Z,40.90
2019-02-05T11:01:46.008Z,40.90
2019-02-05T11:02:45.991Z,40.10
2019-02-05T11:03:45.974Z,36.40
2019-02-05T11:04:45.957Z,41.00
2019-02-05T11:05:45.941Z,39.30
2019-02-05T11:06:45.924Z,39.60
2019-02-05T11:07:45.906Z,39.10
2019-02-05T11:08:45.888Z,38.70
2019-02-05T11:09:45.908Z,44.50
2019-02-05T11:10:45.855Z,41.40
2019-02-05T11:11:45.839Z,42.50
2019-02-05T11:12:45.885Z,38.60
2019-02-05T11:13:45.806Z,42.20
2019-02-05T11:14:45.828Z,39.80
2019-02-05T11:15:45.770Z,42.10
2019-02-05T11:16:45.755Z,41.50
2019-02-05T11:17:45.736Z,40.20
2019-02-05T11:18:45.721Z,39.70
2019-02-05T11:19:45.702Z,39.50
2019-02-05T11:20:45.686Z,40.30
2019-02-05T11:21:45.669Z,41.10
2019-02-05T11:22:45.649Z,43.10
2019-02-05T11:23:45.639Z,39.60
2019-02-05T11:24:45.618Z,38.90
2019-02-05T11:25:45.603Z,40.20
2019-02-05T11:26:45.583Z,40.50
2019-02-05T11:27:46.029Z,40.00
2019-02-05T11:28:45.552Z,42.90
2019-02-05T11:29:45.536Z,40.50
2019-02-05T11:30:45.516Z,41.80
2019-02-05T11:31:45.504Z,40.50
2019-02-05T11:32:45.486Z,42.60
2019-02-05T11:33:45.470Z,43.80
2019-02-05T11:34:45.452Z,41.90
2019-02-05T11:35:45.436Z,41.00
2019-02-05T11:36:45.417Z,39.60
2019-02-05T11:37:45.404Z,38.70
2019-02-05T11:38:45.384Z,38.50
2019-02-05T11:39:45.368Z,36.50
2019-02-05T11:40:45.355Z,39.40
2019-02-05T11:41:45.340Z,40.80
2019-02-05T11:42:45.320Z,40.30
2019-02-05T11:43:45.304Z,37.50
2019-02-05T11:44:45.288Z,35.70
2019-02-05T11:45:45.275Z,38.60
2019-02-05T11:46:45.253Z,37.40
2019-02-05T11:47:45.236Z,39.70
2019-02-05T11:48:45.221Z,36.40
2019-02-05T11:49:45.204Z,39.80
2019-02-05T11:50:45.186Z,38.30
2019-02-05T11:51:45.169Z,39.10
2019-02-05T11:52:45.154Z,41.00
2019-02-05T11:53:45.137Z,38.10
2019-02-05T11:54:45.233Z,42.80
2019-02-05T11:55:45.117Z,42.60
2019-02-05T11:56:45.089Z,38.80
2019-02-05T11:57:45.072Z,40.90
2019-02-05T11:58:45.057Z,41.10
2019-02-05T11:59:45.040Z,42.80
2019-02-05T12:00:45.022Z,39.40
2019-02-05T12:01:45.007Z,38.30
2019-02-05T12:02:44.988Z,38.20
2019-02-05T12:03:44.973Z,38.40
2019-02-05T12:04:44.959Z,36.20
2019-02-05T12:05:44.939Z,36.30
2019-02-05T12:06:44.924Z,40.60
2019-02-05T12:07:44.906Z,39.80
2019-02-05T12:08:44.888Z,36.50
2019-02-05T12:09:44.873Z,37.40
2019-02-05T12:10:44.856Z,37.20
2019-02-05T12:11:44.840Z,36.30
2019-02-05T12:12:44.822Z,34.20
2019-02-05T12:13:44.807Z,39.20
2019-02-05T12:14:44.790Z,41.20
2019-02-05T12:15:44.774Z,39.50
2019-02-05T12:16:44.757Z,42.50
2019-02-05T12:17:44.741Z,39.90
2019-02-05T12:18:44.724Z,39.50
2019-02-05T12:19:44.708Z,38.10
2019-02-05T12:20:44.691Z,39.60
2019-02-05T12:21:44.676Z,40.90
2019-02-05T12:22:44.662Z,38.00
2019-02-05T12:23:44.640Z,37.40
2019-02-05T12:24:44.623Z,41.00
2019-02-05T12:25:44.611Z,41.00
2019-02-05T12:26:44.601Z,40.30
2019-02-05T12:27:44.579Z,36.10
2019-02-05T12:28:44.560Z,39.10
2019-02-05T12:29:44.543Z,39.80
2019-02-05T12:30:45.600Z,38.50
2019-02-05T12:31:44.509Z,39.00
2019-02-05T12:32:44.493Z,41.50
2019-02-05T12:33:44.479Z,38.20
2019-02-05T12:34:44.459Z,39.00
2019-02-05T12:35:44.441Z,40.90
2019-02-05T12:36:44.426Z,39.70
2019-02-05T12:37:44.410Z,38.90
2019-02-05T12:38:44.392Z,38.80
2019-02-05T12:39:44.377Z,38.10
2019-02-05T12:40:44.358Z,38.90
2019-02-05T12:41:44.342Z,41.70
2019-02-05T12:42:44.322Z,34.80
2019-02-05T12:43:44.307Z,34.70
2019-02-05T12:44:44.291Z,35.10
2019-02-05T12:45:44.275Z,35.50
2019-02-05T12:46:44.256Z,37.50
2019-02-05T12:47:44.239Z,36.60
2019-02-05T12:48:44.220Z,35.20
2019-02-05T12:49:44.204Z,34.70
2019-02-05T12:50:44.187Z,36.30
2019-02-05T12:51:44.167Z,35.70
2019-02-05T12:52:44.151Z,36.40
2019-02-05T12:53:44.135Z,37.80